createdAt,value
2022-11-23T00:01:16.971Z,48.65
2022-11-23T00:03:45.260Z,46.58
2022-11-23T00:06:12.578Z,46.08
2022-11-23T00:08:39.945Z,46.38
2022-11-23T00:11:07.212Z,47.40
2022-11-23T00:13:35.719Z,46.45
2022-11-23T00:16:26.582Z,46.35
2022-11-23T00:21:22.491Z,46.58
2022-11-23T00:23:49.653Z,47.53
2022-11-23T00:26:17.342Z,45.45
2022-11-23T00:28:45.179Z,46.30
2022-11-23T00:31:14.520Z,48.35
2022-11-23T00:33:42.251Z,47.53
2022-11-23T00:36:14.443Z,49.25
2022-11-23T00:38:42.506Z,47.92
2022-11-23T00:41:12.150Z,48.72
2022-11-23T00:43:39.133Z,46.67
2022-11-23T00:46:20.803Z,47.17
2022-11-23T00:48:50.306Z,44.53
2022-11-23T00:51:19.884Z,41.78
2022-11-23T00:53:47.248Z,41.95
2022-11-23T00:56:18.582Z,41.10
2022-11-23T00:58:56.488Z,37.95
2022-11-23T01:01:25.534Z,35.63
2022-11-23T01:03:54.850Z,35.70
2022-11-23T01:06:31.118Z,33.42
2022-11-23T01:09:00.808Z,37.58
2022-11-23T01:11:29.594Z,35.65
2022-11-23T01:13:56.529Z,34.67
2022-11-23T01:16:26.228Z,35.60
2022-11-23T01:18:57.039Z,37.03
2022-11-23T01:23:51.772Z,36.42
2022-11-23T01:26:18.834Z,37.83
2022-11-23T01:28:45.785Z,37.20
2022-11-23T01:31:16.933Z,38.97
2022-11-23T01:33:43.869Z,38.10
2022-11-23T01:36:21.846Z,39.35
2022-11-23T01:38:49.337Z,39.72
2022-11-23T01:41:28.131Z,38.00
2022-11-23T01:43:55.712Z,41.55
2022-11-23T01:46:23.155Z,38.53
2022-11-23T01:48:58.365Z,37.20
2022-11-23T01:51:45.025Z,38.25
2022-11-23T01:54:16.436Z,34.85
2022-11-23T01:56:47.354Z,35.58
2022-11-23T01:59:17.159Z,34.63
2022-11-23T02:01:44.886Z,31.90
2022-11-23T02:04:25.625Z,34.05
2022-11-23T02:06:53.009Z,33.97
2022-11-23T02:09:20.912Z,33.80
2022-11-23T02:11:47.888Z,32.35
2022-11-23T02:14:19.060Z,31.92
2022-11-23T02:16:50.170Z,33.55
2022-11-23T02:19:31.313Z,35.85
2022-11-23T02:21:58.360Z,33.45
2022-11-23T02:24:31.917Z,34.80
2022-11-23T02:26:58.910Z,35.13
2022-11-23T02:29:27.024Z,34.20
2022-11-23T02:31:54.799Z,30.08
2022-11-23T02:34:21.898Z,31.30
2022-11-23T02:36:51.723Z,31.15
2022-11-23T02:39:28.292Z,28.38
2022-11-23T02:41:56.178Z,28.45
2022-11-23T02:44:26.224Z,29.00
2022-11-23T02:46:53.393Z,29.42
2022-11-23T02:49:21.483Z,30.17
2022-11-23T02:51:48.414Z,27.65
2022-11-23T02:54:15.399Z,27.42
2022-11-23T02:56:42.453Z,27.85
2022-11-23T02:59:09.475Z,29.55
2022-11-23T03:01:37.638Z,30.75
2022-11-23T03:04:04.832Z,29.40
2022-11-23T03:06:31.753Z,28.88
2022-11-23T03:08:58.709Z,28.77
2022-11-23T03:11:26.112Z,29.27
2022-11-23T03:13:53.080Z,28.88
2022-11-23T03:16:20.049Z,30.50
2022-11-23T03:18:46.972Z,30.60
2022-11-23T03:21:13.954Z,31.58
2022-11-23T03:23:40.886Z,28.95
2022-11-23T03:26:12.675Z,31.90
2022-11-23T03:28:40.271Z,29.50
2022-11-23T03:31:07.353Z,27.45
2022-11-23T03:33:34.380Z,27.33
2022-11-23T03:36:01.614Z,28.25
2022-11-23T03:38:28.733Z,30.15
2022-11-23T03:40:55.756Z,28.80
2022-11-23T03:43:23.685Z,29.13
2022-11-23T03:45:50.681Z,31.23
2022-11-23T03:48:18.016Z,31.13
2022-11-23T03:50:45.625Z,29.80
2022-11-23T03:53:12.966Z,31.13
2022-11-23T03:55:39.994Z,31.38
2022-11-23T03:58:07.059Z,30.65
2022-11-23T04:00:34.595Z,30.33
2022-11-23T04:03:01.568Z,28.85
2022-11-23T04:05:28.708Z,28.42
2022-11-23T04:07:55.637Z,30.88
2022-11-23T04:10:22.567Z,30.92
2022-11-23T04:12:53.408Z,30.15
2022-11-23T04:15:20.551Z,28.85
2022-11-23T04:17:47.759Z,26.30
2022-11-23T04:20:15.088Z,25.70
2022-11-23T04:22:41.913Z,24.63
2022-11-23T04:25:09.835Z,25.83
2022-11-23T04:27:36.788Z,25.40
2022-11-23T04:30:04.746Z,27.42
2022-11-23T04:32:31.702Z,27.65
2022-11-23T04:34:58.674Z,27.25
2022-11-23T04:37:25.596Z,26.35
2022-11-23T04:39:52.553Z,25.77
2022-11-23T04:42:19.570Z,24.25
2022-11-23T04:44:48.905Z,26.00
2022-11-23T04:47:15.991Z,24.90
2022-11-23T04:49:43.306Z,24.48
2022-11-23T04:52:10.382Z,25.83
2022-11-23T04:54:37.275Z,25.35
2022-11-23T04:57:04.464Z,25.90
2022-11-23T04:59:31.719Z,26.40
2022-11-23T05:01:58.982Z,25.98
2022-11-23T05:04:25.912Z,24.83
2022-11-23T05:06:53.514Z,24.45
2022-11-23T05:09:20.492Z,26.90
2022-11-23T05:11:47.515Z,25.40
2022-11-23T05:14:14.652Z,26.20
2022-11-23T05:16:41.997Z,27.95
2022-11-23T05:19:09.052Z,27.15
2022-11-23T05:21:36.058Z,25.38
2022-11-23T05:24:03.023Z,25.83
2022-11-23T05:26:29.971Z,26.15
2022-11-23T05:28:56.952Z,27.25
2022-11-23T05:31:23.908Z,25.77
2022-11-23T05:33:50.840Z,25.35
2022-11-23T05:36:17.792Z,27.17
2022-11-23T05:38:45.608Z,26.15
2022-11-23T05:41:13.016Z,26.48
2022-11-23T05:43:39.943Z,24.98
2022-11-23T05:46:07.126Z,26.38
2022-11-23T05:48:34.104Z,25.27
2022-11-23T05:51:05.137Z,26.23
2022-11-23T05:53:32.675Z,26.02
2022-11-23T05:56:02.985Z,29.08
2022-11-23T05:58:30.190Z,26.48
2022-11-23T06:01:01.518Z,28.25
2022-11-23T06:03:28.694Z,27.45
2022-11-23T06:05:55.790Z,27.67
2022-11-23T06:08:22.753Z,30.35
2022-11-23T06:10:50.362Z,27.35
2022-11-23T06:13:17.306Z,28.17
2022-11-23T06:15:44.147Z,29.27
2022-11-23T06:18:11.283Z,26.48
2022-11-23T06:20:38.328Z,28.77
2022-11-23T06:23:05.288Z,28.55
2022-11-23T06:25:32.535Z,28.35
2022-11-23T06:28:00.951Z,26.48
2022-11-23T06:30:29.502Z,25.52
2022-11-23T06:32:56.748Z,25.73
2022-11-23T06:35:24.120Z,27.65
2022-11-23T06:37:54.858Z,27.33
2022-11-23T06:42:48.909Z,27.13
2022-11-23T06:45:16.252Z,24.90
2022-11-23T06:47:44.159Z,26.73
2022-11-23T06:50:11.450Z,25.88
2022-11-23T06:52:38.465Z,26.50
2022-11-23T06:55:05.965Z,25.17
2022-11-23T06:57:32.971Z,25.95
2022-11-23T06:59:59.990Z,23.60
2022-11-23T07:02:26.979Z,23.85
2022-11-23T07:04:53.997Z,24.20
2022-11-23T07:07:21.220Z,23.73
2022-11-23T07:09:48.379Z,26.90
2022-11-23T07:12:15.342Z,23.92
2022-11-23T07:14:42.326Z,26.15
2022-11-23T07:17:12.656Z,28.55
2022-11-23T07:19:41.853Z,27.75
2022-11-23T07:22:08.800Z,28.38
2022-11-23T07:24:40.520Z,28.38
2022-11-23T07:27:09.671Z,25.77
2022-11-23T07:29:36.641Z,26.80
2022-11-23T07:32:03.956Z,26.33
2022-11-23T07:34:30.875Z,28.05
2022-11-23T07:37:01.798Z,26.52
2022-11-23T07:39:55.197Z,28.65
2022-11-23T07:42:32.206Z,29.85
2022-11-23T07:45:00.970Z,26.92
2022-11-23T07:47:27.932Z,27.65
2022-11-23T07:49:54.922Z,27.60
2022-11-23T07:52:22.107Z,30.92
2022-11-23T07:54:49.219Z,28.55
2022-11-23T07:57:16.176Z,24.65
2022-11-23T07:59:43.138Z,24.15
2022-11-23T08:02:15.044Z,24.33
2022-11-23T08:04:42.213Z,23.50
2022-11-23T08:07:09.314Z,24.88
2022-11-23T08:09:36.639Z,26.20
2022-11-23T08:12:03.606Z,29.63
2022-11-23T08:14:30.960Z,25.92
2022-11-23T08:16:58.135Z,24.63
2022-11-23T08:19:25.123Z,23.60
2022-11-23T08:21:52.109Z,24.45
2022-11-23T08:24:19.161Z,25.10
2022-11-23T08:26:46.742Z,24.45
2022-11-23T08:29:13.689Z,22.38
2022-11-23T08:31:40.713Z,23.17
2022-11-23T08:34:07.768Z,26.17
2022-11-23T08:36:34.733Z,24.40
2022-11-23T08:39:01.816Z,25.23
2022-11-23T08:41:29.003Z,25.40
2022-11-23T08:43:56.475Z,25.08
2022-11-23T08:46:23.461Z,28.30
2022-11-23T08:48:51.426Z,26.08
2022-11-23T08:51:22.912Z,24.35
2022-11-23T08:53:50.590Z,25.00
2022-11-23T08:56:18.068Z,26.88
2022-11-23T08:58:45.429Z,26.10
2022-11-23T09:01:17.166Z,28.65
2022-11-23T09:03:44.794Z,25.60
2022-11-23T09:06:12.487Z,23.98
2022-11-23T09:08:39.550Z,26.70
2022-11-23T09:11:08.085Z,26.13
2022-11-23T09:13:38.644Z,27.10
2022-11-23T09:16:06.934Z,28.85
2022-11-23T09:18:35.923Z,26.77
2022-11-23T09:21:06.401Z,25.02
2022-11-23T09:23:33.757Z,25.83
2022-11-23T09:26:01.736Z,22.98
2022-11-23T09:28:29.353Z,25.05
2022-11-23T09:30:57.092Z,22.25
2022-11-23T09:33:25.189Z,26.63
2022-11-23T09:36:03.293Z,25.02
2022-11-23T09:38:56.158Z,23.13
2022-11-23T09:41:52.784Z,24.13
2022-11-23T09:44:41.638Z,24.27
2022-11-23T09:47:42.448Z,24.15
2022-11-23T09:50:12.107Z,24.85
2022-11-23T09:52:43.359Z,25.13
2022-11-23T09:55:22.661Z,25.70
2022-11-23T09:57:50.154Z,29.08
2022-11-23T10:00:20.458Z,74.40
2022-11-23T10:02:47.876Z,58.72
2022-11-23T10:05:20.734Z,46.83
2022-11-23T10:08:11.095Z,27.30
2022-11-23T10:10:46.432Z,28.83
2022-11-23T10:13:36.291Z,28.20
2022-11-23T10:16:06.094Z,27.45
2022-11-23T10:18:56.479Z,25.23
2022-11-23T10:21:40.391Z,29.35
2022-11-23T10:24:25.273Z,28.25
2022-11-23T10:26:52.458Z,28.20
2022-11-23T10:29:22.695Z,24.70
2022-11-23T10:31:55.468Z,25.90
2022-11-23T10:34:48.718Z,25.40
2022-11-23T10:37:16.851Z,25.70
2022-11-23T10:39:44.018Z,28.63
2022-11-23T10:42:21.652Z,23.90
2022-11-23T10:44:50.199Z,25.63
2022-11-23T10:47:59.275Z,26.17
2022-11-23T10:50:37.755Z,28.10
2022-11-23T10:53:26.363Z,25.40
2022-11-23T10:56:08.989Z,25.40
2022-11-23T10:58:46.673Z,28.20
2022-11-23T11:01:25.083Z,26.05
2022-11-23T11:03:53.101Z,27.73
2022-11-23T11:06:29.491Z,27.27
2022-11-23T11:09:03.635Z,26.48
2022-11-23T11:11:46.567Z,29.10
2022-11-23T11:14:23.692Z,26.35
2022-11-23T11:16:56.044Z,28.52
2022-11-23T11:19:27.985Z,31.55
2022-11-23T11:21:55.477Z,29.33
2022-11-23T11:24:45.863Z,30.25
2022-11-23T11:27:22.576Z,31.45
2022-11-23T11:29:52.520Z,32.83
2022-11-23T11:32:26.382Z,33.65
2022-11-23T11:34:59.101Z,38.83
2022-11-23T11:37:47.005Z,33.03
2022-11-23T11:40:17.025Z,29.52
2022-11-23T11:42:47.411Z,33.00
2022-11-23T11:45:23.444Z,31.63
2022-11-23T11:48:00.775Z,31.00
2022-11-23T11:50:32.074Z,27.42
2022-11-23T11:53:13.162Z,28.75
2022-11-23T11:58:27.712Z,31.88
2022-11-23T12:01:04.448Z,34.35
2022-11-23T12:03:43.285Z,32.55
2022-11-23T12:06:26.646Z,30.17
2022-11-23T12:09:17.354Z,33.80
2022-11-23T12:11:44.746Z,32.38
2022-11-23T12:14:14.116Z,30.85
2022-11-23T12:17:32.419Z,32.35
2022-11-23T12:20:15.971Z,32.47
2022-11-23T12:22:55.744Z,32.17
2022-11-23T12:25:34.930Z,36.47
2022-11-23T12:28:20.644Z,31.63
2022-11-23T12:30:58.317Z,35.67
2022-11-23T12:33:28.167Z,30.67
2022-11-23T12:36:22.354Z,31.08
2022-11-23T12:39:17.175Z,29.83
2022-11-23T12:41:54.776Z,34.58
2022-11-23T12:44:39.044Z,37.55
2022-11-23T12:47:21.164Z,34.63
2022-11-23T12:50:03.952Z,30.90
2022-11-23T12:52:58.278Z,33.35
2022-11-23T12:55:26.502Z,31.20
2022-11-23T12:58:12.213Z,30.20
2022-11-23T13:01:30.645Z,31.30
2022-11-23T13:04:09.135Z,32.80
2022-11-23T13:07:26.199Z,35.20
2022-11-23T13:10:09.605Z,46.42
2022-11-23T13:12:36.564Z,50.72
2022-11-23T13:15:30.419Z,42.92
2022-11-23T13:18:31.331Z,37.95
2022-11-23T13:23:39.151Z,39.13
2022-11-23T13:26:17.404Z,44.33
2022-11-23T13:28:46.529Z,36.13
2022-11-23T13:31:16.856Z,36.75
2022-11-23T13:33:49.136Z,52.42
2022-11-23T13:39:43.511Z,43.08
2022-11-23T13:42:11.567Z,34.85
2022-11-23T13:44:39.122Z,32.60
2022-11-23T13:47:18.088Z,33.85
2022-11-23T13:49:51.715Z,35.00
2022-11-23T13:52:21.816Z,31.90
2022-11-23T13:55:08.879Z,34.17
2022-11-23T13:57:38.263Z,39.08
2022-11-23T14:00:42.618Z,35.42
2022-11-23T14:03:44.448Z,37.47
2022-11-23T14:06:20.086Z,47.22
2022-11-23T14:08:49.473Z,37.97
2022-11-23T14:11:21.198Z,36.90
2022-11-23T14:13:54.530Z,36.58
2022-11-23T14:16:47.390Z,34.70
2022-11-23T14:19:51.921Z,34.97
2022-11-23T14:22:27.626Z,33.75
2022-11-23T14:25:04.153Z,34.20
2022-11-23T14:28:45.035Z,36.15
2022-11-23T14:31:39.580Z,34.30
2022-11-23T14:34:24.801Z,36.47
2022-11-23T14:37:08.751Z,39.17
2022-11-23T14:39:56.749Z,37.40
2022-11-23T14:42:27.991Z,36.92
2022-11-23T14:44:55.188Z,47.00
2022-11-23T14:47:27.705Z,39.72
2022-11-23T14:49:54.965Z,38.72
2022-11-23T14:52:33.804Z,38.88
2022-11-23T14:55:03.523Z,39.00
2022-11-23T14:57:40.149Z,36.58
2022-11-23T15:00:11.811Z,40.60
2022-11-23T15:02:41.263Z,41.30
2022-11-23T15:05:18.052Z,39.33
2022-11-23T15:07:52.691Z,41.28
2022-11-23T15:10:40.933Z,40.70
2022-11-23T15:13:24.986Z,39.25
2022-11-23T15:15:55.244Z,41.88
2022-11-23T15:18:38.294Z,41.75
2022-11-23T15:21:27.862Z,39.83
2022-11-23T15:23:57.789Z,39.47
2022-11-23T15:29:38.250Z,38.60
2022-11-23T15:32:32.093Z,38.28
2022-11-23T15:35:03.753Z,39.38
2022-11-23T15:39:57.949Z,41.50
2022-11-23T15:42:26.431Z,37.72
2022-11-23T15:47:40.492Z,40.88
2022-11-23T15:50:10.438Z,38.30
2022-11-23T15:52:38.196Z,37.65
2022-11-23T15:54:53.532Z,44.42
2022-11-23T15:55:10.166Z,35.35
2022-11-23T15:57:37.938Z,41.55
2022-11-23T16:00:06.428Z,38.67
2022-11-23T16:02:33.613Z,38.10
2022-11-23T16:05:05.898Z,40.53
2022-11-23T16:07:33.045Z,42.97
2022-11-23T16:10:21.505Z,37.35
2022-11-23T16:13:02.417Z,37.05
2022-11-23T16:15:38.732Z,40.65
2022-11-23T16:18:26.120Z,42.47
2022-11-23T16:20:59.485Z,37.95
2022-11-23T16:23:45.306Z,40.92
2022-11-23T16:26:13.992Z,35.63
2022-11-23T16:28:54.874Z,38.60
2022-11-23T16:33:56.685Z,38.22
2022-11-23T16:36:26.764Z,35.47
2022-11-23T16:38:53.814Z,37.95
2022-11-23T16:41:20.789Z,37.03
2022-11-23T16:43:52.902Z,40.42
2022-11-23T16:46:20.177Z,39.63
2022-11-23T16:48:47.206Z,38.90
2022-11-23T16:51:14.875Z,38.72
2022-11-23T16:54:11.994Z,37.85
2022-11-23T16:56:30.566Z,39.45
2022-11-23T16:58:57.769Z,42.10
2022-11-23T17:01:26.613Z,39.70
2022-11-23T17:03:54.139Z,42.20
2022-11-23T17:06:23.874Z,41.17
2022-11-23T17:09:00.449Z,41.10
2022-11-23T17:11:30.199Z,41.08
2022-11-23T17:13:57.368Z,40.05
2022-11-23T17:16:27.244Z,47.78
2022-11-23T17:18:54.422Z,41.42
2022-11-23T17:21:21.366Z,41.30
2022-11-23T17:23:48.510Z,41.78
2022-11-23T17:26:36.917Z,40.85
2022-11-23T17:29:06.591Z,42.28
2022-11-23T17:31:33.977Z,41.85
2022-11-23T17:34:01.385Z,46.72
2022-11-23T17:36:29.618Z,49.55
2022-11-23T17:38:56.772Z,43.30
2022-11-23T17:41:24.160Z,47.85
2022-11-23T17:43:51.069Z,46.75
2022-11-23T17:46:26.766Z,102.38
2022-11-23T17:48:58.654Z,41.90
2022-11-23T17:51:25.997Z,42.20
2022-11-23T17:53:52.923Z,42.15
2022-11-23T17:56:24.783Z,42.13
2022-11-23T17:58:55.106Z,47.25
2022-11-23T18:01:23.150Z,44.20
2022-11-23T18:03:50.885Z,44.25
2022-11-23T18:06:20.949Z,42.65
2022-11-23T18:08:48.717Z,43.17
2022-11-23T18:11:16.116Z,40.63
2022-11-23T18:13:43.902Z,41.35
2022-11-23T18:16:11.569Z,50.03
2022-11-23T18:18:39.053Z,38.30
2022-11-23T18:21:10.242Z,39.78
2022-11-23T18:23:37.708Z,35.70
2022-11-23T18:26:30.179Z,36.17
2022-11-23T18:28:59.850Z,36.05
2022-11-23T18:31:27.336Z,38.13
2022-11-23T18:33:54.325Z,44.00
2022-11-23T18:36:22.359Z,40.55
2022-11-23T18:38:49.297Z,39.53
2022-11-23T18:41:17.495Z,39.00
2022-11-23T18:43:45.410Z,33.95
2022-11-23T18:46:19.457Z,38.45
2022-11-23T18:48:47.947Z,38.70
2022-11-23T18:51:16.329Z,39.05
2022-11-23T18:53:45.265Z,41.30
2022-11-23T18:56:12.173Z,42.00
2022-11-23T18:58:42.353Z,41.42
2022-11-23T19:01:12.694Z,46.47
2022-11-23T19:06:09.781Z,42.78
2022-11-23T19:08:45.172Z,43.70
2022-11-23T19:11:19.425Z,42.70
2022-11-23T19:13:48.656Z,43.38
2022-11-23T19:16:18.117Z,44.10
2022-11-23T19:18:45.516Z,42.95
2022-11-23T19:21:17.720Z,41.97
2022-11-23T19:23:48.205Z,39.30
2022-11-23T19:26:15.052Z,44.17
2022-11-23T19:28:45.064Z,43.10
2022-11-23T19:31:15.031Z,46.50
2022-11-23T19:33:43.236Z,47.15
2022-11-23T19:36:13.077Z,46.22
2022-11-23T19:38:40.079Z,47.83
2022-11-23T19:41:07.275Z,47.10
2022-11-23T19:43:34.487Z,45.13
2022-11-23T19:46:02.980Z,46.33
2022-11-23T19:48:31.641Z,44.45
2022-11-23T19:51:04.309Z,42.65
2022-11-23T19:53:32.861Z,44.40
2022-11-23T19:56:12.990Z,42.17
2022-11-23T19:58:40.728Z,42.70
2022-11-23T20:01:11.145Z,39.35
2022-11-23T20:03:39.271Z,39.67
2022-11-23T20:06:10.367Z,41.05
2022-11-23T20:08:38.592Z,40.28
2022-11-23T20:11:16.846Z,41.22
2022-11-23T20:13:44.171Z,41.17
2022-11-23T20:16:13.219Z,41.90
2022-11-23T20:18:41.307Z,43.30
2022-11-23T20:21:15.273Z,45.53
2022-11-23T20:23:43.018Z,42.72
2022-11-23T20:26:11.542Z,47.88
2022-11-23T20:28:38.670Z,43.53
2022-11-23T20:31:07.067Z,46.42
2022-11-23T20:33:34.363Z,53.65
2022-11-23T20:36:14.643Z,51.72
2022-11-23T20:38:42.243Z,55.20
2022-11-23T20:41:19.792Z,54.78
2022-11-23T20:43:48.734Z,49.53
2022-11-23T20:46:31.735Z,53.33
2022-11-23T20:49:03.132Z,51.80
2022-11-23T20:51:30.705Z,50.28
2022-11-23T20:53:57.823Z,47.15
2022-11-23T20:56:27.280Z,48.80
2022-11-23T20:58:56.449Z,43.27
2022-11-23T21:01:24.296Z,46.50
2022-11-23T21:03:55.071Z,42.85
2022-11-23T21:08:50.852Z,38.03
2022-11-23T21:11:46.980Z,40.45
2022-11-23T21:14:22.874Z,36.15
2022-11-23T21:16:55.382Z,39.40
2022-11-23T21:19:25.009Z,37.30
2022-11-23T21:21:52.206Z,38.63
2022-11-23T21:24:19.291Z,39.03
2022-11-23T21:26:46.707Z,36.03
2022-11-23T21:29:13.707Z,33.88
2022-11-23T21:31:43.061Z,34.50
2022-11-23T21:34:18.349Z,35.83
2022-11-23T21:36:45.687Z,35.60
2022-11-23T21:39:13.073Z,35.88
2022-11-23T21:41:40.485Z,32.97
2022-11-23T21:44:08.740Z,36.10
2022-11-23T21:46:38.238Z,33.08
2022-11-23T21:49:06.957Z,32.53
2022-11-23T21:51:34.575Z,33.70
2022-11-23T21:54:06.778Z,34.15
2022-11-23T21:56:33.780Z,39.88
2022-11-23T21:59:00.859Z,36.35
2022-11-23T22:06:57.461Z,34.97
2022-11-23T22:09:24.736Z,36.78
2022-11-23T22:11:51.990Z,36.10
2022-11-23T22:14:20.356Z,37.50
2022-11-23T22:16:54.216Z,35.47
2022-11-23T22:19:21.464Z,38.90
2022-11-23T22:21:49.042Z,38.58
2022-11-23T22:24:18.111Z,38.38
2022-11-23T22:26:46.112Z,41.67
2022-11-23T22:29:14.944Z,38.72
2022-11-23T22:31:42.305Z,38.90
2022-11-23T22:34:12.139Z,39.80
2022-11-23T22:36:39.599Z,43.33
2022-11-23T22:39:07.389Z,43.75
2022-11-23T22:41:37.655Z,44.78
2022-11-23T22:46:33.528Z,41.95
2022-11-23T22:49:00.945Z,41.33
2022-11-23T22:51:29.244Z,40.65
2022-11-23T22:54:00.606Z,39.13
2022-11-23T22:56:29.279Z,39.55
2022-11-23T22:58:56.800Z,44.33
2022-11-23T23:01:29.509Z,41.22
2022-11-23T23:03:58.601Z,40.25
2022-11-23T23:06:28.213Z,42.53
2022-11-23T23:08:57.979Z,40.47
2022-11-23T23:11:26.927Z,40.77
2022-11-23T23:13:54.456Z,41.25
2022-11-23T23:16:22.306Z,39.72
2022-11-23T23:18:49.614Z,39.20
2022-11-23T23:21:19.299Z,42.55
2022-11-23T23:23:48.383Z,41.90
2022-11-23T23:26:17.777Z,45.05
2022-11-23T23:28:45.885Z,40.88
2022-11-23T23:31:15.180Z,44.63
2022-11-23T23:33:46.395Z,42.88
2022-11-23T23:36:16.681Z,42.08
2022-11-23T23:38:44.386Z,43.13
2022-11-23T23:41:13.287Z,44.80
2022-11-23T23:43:41.177Z,42.05
2022-11-23T23:46:10.601Z,40.28
2022-11-23T23:48:39.080Z,41.63
2022-11-23T23:51:11.499Z,40.80
2022-11-23T23:53:39.705Z,37.75
2022-11-23T23:56:09.328Z,39.30
2022-11-23T23:58:36.639Z,38.03
